Time;durP1;ratioP1;P1;durP2;ratioP2;P2;SDS_P1;SDS_P2;PMS_P1;PMS_P2;Temp;Humidity;BMP_temperature;BMP_pressure;BME280_temperature;BME280_humidity;BME280_pressure;Samples;Min_cycle;Max_cycle;Signal;HPM_P1;HPM_P2
2021/07/07 00:01:02;;;;;;;4.22;1.23;;;;;;;13.03;49.72;95363.59;5064553;28;20484;-64
2021/07/07 00:03:28;;;;;;;4.72;2.03;;;;;;;12.96;49.82;95368.91;5047521;28;20211;-63
2021/07/07 00:05:53;;;;;;;4.53;1.65;;;;;;;12.88;50.34;95372.56;5065827;28;20139;-64
2021/07/07 00:08:19;;;;;;;4.22;2.40;;;;;;;12.86;50.33;95381.78;5066031;28;20135;-64
2021/07/07 00:10:44;;;;;;;3.58;1.33;;;;;;;12.89;50.30;95379.53;5056565;28;20116;-63
2021/07/07 00:13:09;;;;;;;1.65;1.20;;;;;;;12.88;50.51;95379.72;5065831;28;20074;-63
2021/07/07 00:15:35;;;;;;;2.28;1.33;;;;;;;12.87;50.38;95362.91;5063595;28;20116;-63
2021/07/07 00:18:02;;;;;;;3.88;1.40;;;;;;;12.88;50.54;95369.88;5050779;28;20101;-64
2021/07/07 00:20:34;;;;;;;2.03;1.20;;;;;;;12.91;50.60;95380.19;5064990;28;20096;-64
2021/07/07 00:23:00;;;;;;;1.95;1.20;;;;;;;12.94;50.32;95370.94;5051947;28;20196;-63
2021/07/07 00:25:26;;;;;;;2.15;1.70;;;;;;;12.91;50.18;95377.50;5053571;28;20092;-63
2021/07/07 00:27:51;;;;;;;4.35;1.60;;;;;;;12.95;50.62;95374.44;5059089;28;20560;-63
2021/07/07 00:30:17;;;;;;;3.88;1.65;;;;;;;12.90;50.58;95359.84;5054563;28;20105;-63
2021/07/07 00:32:42;;;;;;;3.33;1.80;;;;;;;12.85;50.99;95359.59;5052785;28;20304;-63
2021/07/07 00:35:08;;;;;;;5.13;2.30;;;;;;;12.85;50.95;95364.13;5065313;28;20154;-63
2021/07/07 00:37:34;;;;;;;5.00;2.30;;;;;;;12.84;50.89;95357.94;5059569;28;20085;-63
2021/07/07 00:39:59;;;;;;;3.45;1.80;;;;;;;12.84;50.98;95352.59;5055489;28;20580;-63
2021/07/07 00:42:25;;;;;;;1.80;1.38;;;;;;;12.83;51.05;95355.47;5065258;28;20131;-63
2021/07/07 00:44:50;;;;;;;4.25;1.40;;;;;;;12.83;51.23;95358.97;5052478;28;20184;-63
2021/07/07 00:47:15;;;;;;;4.63;1.50;;;;;;;12.88;50.69;95355.69;5062416;28;20100;-64
2021/07/07 00:49:41;;;;;;;5.60;1.13;;;;;;;12.91;50.67;95360.63;5055452;28;20108;-64
2021/07/07 00:52:08;;;;;;;4.70;1.65;;;;;;;12.91;50.64;95352.63;5065482;28;20154;-63
2021/07/07 00:54:33;;;;;;;5.15;2.03;;;;;;;12.90;50.85;95345.63;5065211;28;20105;-64
2021/07/07 00:57:00;;;;;;;2.50;1.52;;;;;;;12.92;50.82;95349.75;5064086;28;20081;-63
2021/07/07 00:59:25;;;;;;;2.42;1.65;;;;;;;12.93;51.17;95339.91;5065488;28;20115;-64
2021/07/07 01:01:51;;;;;;;4.00;1.80;;;;;;;12.98;50.75;95342.78;5063835;28;20473;-63
2021/07/07 01:04:16;;;;;;;4.03;1.27;;;;;;;13.01;50.75;95353.13;5060929;28;20082;-64
2021/07/07 01:06:42;;;;;;;7.13;1.50;;;;;;;12.98;50.81;95352.69;5061863;28;20100;-63
2021/07/07 01:09:08;;;;;;;3.15;1.30;;;;;;;13.01;50.60;95350.44;5061116;28;20890;-63
2021/07/07 01:11:33;;;;;;;86.60;40.83;;;;;;;13.02;50.95;95357.44;5061577;28;20101;-63
2021/07/07 01:13:59;;;;;;;13.25;6.35;;;;;;;13.07;50.68;95358.66;5065126;28;20113;-64
2021/07/07 01:16:26;;;;;;;5.57;2.90;;;;;;;13.01;51.04;95350.44;5065538;28;20088;-63
2021/07/07 01:18:51;;;;;;;6.90;3.33;;;;;;;13.06;50.69;95344.50;5065260;28;20101;-63
2021/07/07 01:21:17;;;;;;;5.15;2.10;;;;;;;13.10;50.82;95359.13;5064175;28;20122;-64
2021/07/07 01:23:42;;;;;;;5.03;2.50;;;;;;;13.04;50.47;95354.56;5063968;28;20105;-64
2021/07/07 01:26:07;;;;;;;6.18;2.30;;;;;;;13.05;50.53;95356.19;5065417;28;20108;-63
2021/07/07 01:28:33;;;;;;;3.35;1.83;;;;;;;13.16;50.62;95350.28;5065529;28;20084;-63
2021/07/07 01:30:58;;;;;;;2.63;1.13;;;;;;;13.17;50.49;95354.63;5064979;28;20680;-63
2021/07/07 01:33:24;;;;;;;2.78;1.23;;;;;;;13.16;50.59;95360.16;5065214;28;20094;-63
2021/07/07 01:35:49;;;;;;;3.65;1.35;;;;;;;13.16;50.45;95355.63;5063528;28;20108;-63
2021/07/07 01:38:15;;;;;;;4.25;1.88;;;;;;;13.15;50.40;95353.97;5056913;28;20425;-63
2021/07/07 01:40:40;;;;;;;4.18;1.33;;;;;;;13.12;50.40;95365.06;5063288;28;20096;-64
2021/07/07 01:43:06;;;;;;;5.53;1.50;;;;;;;13.12;50.35;95364.25;5064932;28;20109;-64
2021/07/07 01:45:31;;;;;;;2.88;1.50;;;;;;;13.09;50.49;95344.09;5064396;28;20157;-63
2021/07/07 01:47:57;;;;;;;5.65;1.95;;;;;;;13.13;50.60;95349.88;5062374;28;20077;-66
2021/07/07 01:50:23;;;;;;;5.97;1.40;;;;;;;13.14;50.52;95349.66;5053197;28;20195;-63
2021/07/07 01:52:48;;;;;;;2.30;1.48;;;;;;;13.14;50.21;95338.97;5051232;28;20089;-63
2021/07/07 01:55:15;;;;;;;2.88;1.10;;;;;;;13.15;50.19;95345.97;5064559;28;20158;-63
2021/07/07 01:57:44;;;;;;;4.68;1.40;;;;;;;13.18;50.17;95353.59;5062116;28;20105;-63
2021/07/07 02:00:14;;;;;;;7.47;1.50;;;;;;;13.20;50.08;95365.91;5059626;28;20526;-64
2021/07/07 02:02:40;;;;;;;3.65;1.38;;;;;;;13.20;50.22;95372.09;5061858;28;20104;-63
2021/07/07 02:05:07;;;;;;;4.57;1.30;;;;;;;13.18;50.38;95368.78;5063559;28;20656;-63
2021/07/07 02:07:32;;;;;;;5.95;1.67;;;;;;;13.14;49.56;95370.22;5063343;28;20578;-64
2021/07/07 02:09:58;;;;;;;4.22;1.75;;;;;;;13.11;50.23;95365.25;5063751;28;20105;-63
2021/07/07 02:12:23;;;;;;;5.20;1.60;;;;;;;13.06;50.50;95365.88;5068165;28;20080;-63
2021/07/07 02:14:48;;;;;;;2.65;1.80;;;;;;;13.10;50.47;95356.44;5067756;28;20112;-63
2021/07/07 02:17:14;;;;;;;4.13;1.80;;;;;;;13.12;50.26;95354.38;5068240;28;20084;-63
2021/07/07 02:19:39;;;;;;;4.93;1.45;;;;;;;13.10;50.31;95364.47;5068390;28;20466;-63
2021/07/07 02:22:05;;;;;;;3.63;1.50;;;;;;;13.10;50.58;95358.28;5068217;28;20105;-63
2021/07/07 02:24:30;;;;;;;3.33;1.33;;;;;;;13.08;50.10;95350.47;5068645;28;20115;-63
2021/07/07 02:26:56;;;;;;;3.72;1.30;;;;;;;13.09;50.12;95359.31;5067525;28;20151;-63
2021/07/07 02:29:21;;;;;;;3.97;1.48;;;;;;;13.08;50.31;95360.34;5067966;28;20081;-63
2021/07/07 02:31:46;;;;;;;4.60;1.40;;;;;;;13.08;50.37;95358.47;5063867;28;20694;-63
2021/07/07 02:34:12;;;;;;;2.53;1.20;;;;;;;13.10;50.16;95356.44;5048034;28;20106;-64
2021/07/07 02:36:37;;;;;;;3.35;1.40;;;;;;;13.12;50.13;95351.69;5065290;28;20081;-63
2021/07/07 02:39:04;;;;;;;5.07;1.52;;;;;;;13.10;50.24;95361.78;5064422;28;20359;-63
2021/07/07 02:41:29;;;;;;;4.28;1.38;;;;;;;13.13;50.36;95361.38;5063705;28;20147;-63
2021/07/07 02:43:54;;;;;;;4.75;1.58;;;;;;;13.12;50.25;95366.94;5067402;28;20072;-64
2021/07/07 02:46:20;;;;;;;3.25;1.38;;;;;;;13.13;50.35;95365.91;5066821;28;20108;-63
2021/07/07 02:48:45;;;;;;;5.53;1.40;;;;;;;13.14;50.19;95373.72;5068491;28;20104;-63
2021/07/07 02:51:11;;;;;;;3.22;1.40;;;;;;;13.05;50.36;95378.41;5067762;28;20115;-64
2021/07/07 02:53:36;;;;;;;4.72;1.67;;;;;;;13.05;50.55;95385.59;5067880;28;20587;-63
2021/07/07 02:56:02;;;;;;;4.50;1.80;;;;;;;13.01;50.70;95390.53;5067856;28;20142;-64
2021/07/07 02:58:28;;;;;;;2.25;1.42;;;;;;;13.08;50.62;95384.41;5066227;28;20580;-63
2021/07/07 03:00:53;;;;;;;3.72;1.50;;;;;;;13.03;50.47;95379.63;5066632;28;20077;-63
2021/07/07 03:03:23;;;;;;;4.72;1.80;;;;;;;13.03;50.54;95382.31;5067778;28;20108;-63
2021/07/07 03:05:50;;;;;;;5.15;1.45;;;;;;;13.03;50.37;95383.13;5066154;28;20097;-63
2021/07/07 03:08:15;;;;;;;2.53;1.70;;;;;;;12.98;50.66;95380.19;5068204;28;20496;-63
2021/07/07 03:10:42;;;;;;;3.90;1.60;;;;;;;12.99;50.54;95386.38;5067031;28;20104;-63
2021/07/07 03:13:07;;;;;;;2.08;1.48;;;;;;;12.96;50.72;95390.28;5066870;28;20097;-63
2021/07/07 03:15:35;;;;;;;2.45;1.30;;;;;;;12.95;50.59;95395.81;5067430;28;20108;-64
2021/07/07 03:18:01;;;;;;;2.60;1.30;;;;;;;12.96;50.66;95394.78;5067568;28;20136;-63
2021/07/07 03:20:26;;;;;;;6.43;1.60;;;;;;;12.98;50.40;95396.22;5067274;28;20138;-63
2021/07/07 03:22:52;;;;;;;3.92;1.80;;;;;;;12.96;50.49;95398.28;5067533;28;20101;-63
2021/07/07 03:25:17;;;;;;;4.45;1.83;;;;;;;12.98;50.73;95400.78;5067779;28;20085;-64
2021/07/07 03:27:43;;;;;;;5.05;1.70;;;;;;;12.98;50.86;95401.56;5066617;28;20108;-63
2021/07/07 03:30:09;;;;;;;3.80;1.48;;;;;;;13.00;50.58;95393.41;5065395;28;20109;-63
2021/07/07 03:32:34;;;;;;;3.90;1.52;;;;;;;13.02;50.60;95402.84;5067292;28;20089;-63
2021/07/07 03:35:01;;;;;;;5.32;1.77;;;;;;;13.03;50.62;95396.47;5067027;28;20581;-63
2021/07/07 03:37:26;;;;;;;2.55;1.70;;;;;;;12.96;50.37;95405.47;5066712;28;20077;-63
2021/07/07 03:39:51;;;;;;;4.43;1.70;;;;;;;12.91;50.84;95401.56;5059292;28;20096;-63
2021/07/07 03:42:17;;;;;;;3.33;1.67;;;;;;;12.92;50.60;95397.84;5066810;28;20111;-63
2021/07/07 03:44:42;;;;;;;3.72;1.77;;;;;;;12.93;50.43;95399.50;5065349;28;20124;-64
2021/07/07 03:47:08;;;;;;;6.70;1.80;;;;;;;12.96;50.49;95402.81;5066000;28;20113;-63
2021/07/07 03:49:34;;;;;;;6.90;2.10;;;;;;;12.92;50.58;95408.53;5052612;28;20113;-63
2021/07/07 03:51:59;;;;;;;2.10;1.90;;;;;;;12.86;50.81;95403.16;5066854;28;20093;-63
2021/07/07 03:54:25;;;;;;;5.20;2.10;;;;;;;12.92;50.89;95408.53;5064872;28;20205;-64
2021/07/07 03:56:52;;;;;;;7.22;2.10;;;;;;;12.98;50.57;95398.91;5066559;28;20123;-63
2021/07/07 03:59:17;;;;;;;3.60;2.10;;;;;;;12.98;50.53;95406.91;5068740;28;20109;-64
2021/07/07 04:01:43;;;;;;;8.10;2.20;;;;;;;12.92;51.18;95407.72;5064399;28;20137;-63
2021/07/07 04:04:08;;;;;;;6.55;2.00;;;;;;;12.95;50.76;95404.63;5066378;28;20073;-64
2021/07/07 04:06:35;;;;;;;3.75;1.80;;;;;;;12.99;50.71;95413.94;5064634;28;20175;-63
2021/07/07 04:09:00;;;;;;;5.78;2.00;;;;;;;13.01;50.86;95408.41;5065266;28;20152;-63
2021/07/07 04:11:26;;;;;;;4.45;1.70;;;;;;;13.01;51.22;95411.91;5065786;28;20105;-64
2021/07/07 04:13:51;;;;;;;3.90;1.80;;;;;;;13.04;50.96;95410.69;5064514;28;20117;-63
2021/07/07 04:16:17;;;;;;;3.55;1.65;;;;;;;13.07;51.05;95412.13;5066541;28;20126;-63
2021/07/07 04:18:42;;;;;;;7.60;2.00;;;;;;;13.15;50.84;95418.13;5065880;28;20104;-63
2021/07/07 04:21:07;;;;;;;2.97;1.80;;;;;;;13.15;50.86;95417.28;5066762;28;20081;-63
2021/07/07 04:23:33;;;;;;;1.98;1.70;;;;;;;13.17;50.90;95429.47;5066134;28;20104;-64
2021/07/07 04:25:58;;;;;;;3.50;1.60;;;;;;;13.22;50.72;95428.84;5065918;28;20117;-63
2021/07/07 04:28:24;;;;;;;6.57;2.20;;;;;;;13.34;50.48;95425.59;5066116;28;20571;-63
2021/07/07 04:30:49;;;;;;;5.18;1.90;;;;;;;13.33;50.69;95423.94;5065755;28;20109;-63
2021/07/07 04:33:15;;;;;;;3.38;1.85;;;;;;;13.38;50.54;95422.31;5063944;28;20089;-63
2021/07/07 04:35:40;;;;;;;4.82;1.75;;;;;;;13.50;50.60;95433.25;5065527;28;20113;-63
2021/07/07 04:38:06;;;;;;;2.75;1.60;;;;;;;13.61;50.31;95437.22;5065106;28;20105;-63
2021/07/07 04:40:31;;;;;;;3.60;1.70;;;;;;;13.65;50.50;95437.63;5059142;28;20584;-63
2021/07/07 04:42:57;;;;;;;3.95;1.70;;;;;;;13.70;50.26;95432.47;5065617;28;20109;-63
2021/07/07 04:45:22;;;;;;;6.10;1.70;;;;;;;13.75;50.30;95434.56;5064541;28;20121;-63
2021/07/07 04:47:48;;;;;;;4.55;1.60;;;;;;;13.86;50.28;95438.47;5061291;28;20465;-63
2021/07/07 04:50:15;;;;;;;3.35;1.58;;;;;;;13.93;50.13;95444.69;5069813;28;20594;-63
2021/07/07 04:52:40;;;;;;;2.10;1.40;;;;;;;13.99;49.95;95448.41;5064434;28;20548;-64
2021/07/07 04:55:07;;;;;;;4.78;1.90;;;;;;;14.09;49.51;95448.84;5065759;28;20115;-63
2021/07/07 04:57:40;;;;;;;2.53;1.80;;;;;;;14.24;49.51;95459.34;5063772;28;20077;-63
2021/07/07 05:00:10;;;;;;;4.10;2.22;;;;;;;14.19;49.31;95449.28;5065134;28;20441;-64
2021/07/07 05:02:35;;;;;;;5.70;3.30;;;;;;;14.27;49.73;95456.25;5065966;28;20568;-63
2021/07/07 05:05:01;;;;;;;4.13;2.25;;;;;;;14.39;49.25;95461.00;5066485;28;20084;-63
2021/07/07 05:07:26;;;;;;;4.80;1.88;;;;;;;14.45;49.13;95463.69;5064293;28;20626;-63
2021/07/07 05:09:52;;;;;;;4.13;1.88;;;;;;;14.55;49.16;95459.78;5065596;28;20667;-63
2021/07/07 05:12:17;;;;;;;2.05;1.38;;;;;;;14.61;49.24;95461.59;5065952;28;20084;-64
2021/07/07 05:14:42;;;;;;;7.90;1.77;;;;;;;14.69;48.69;95461.38;5064148;28;20109;-63
2021/07/07 05:17:08;;;;;;;5.53;1.42;;;;;;;14.72;48.97;95465.50;5064628;28;20081;-63
2021/07/07 05:19:33;;;;;;;6.40;1.77;;;;;;;14.57;48.84;95477.28;5056772;28;20177;-64
2021/07/07 05:21:59;;;;;;;3.90;1.48;;;;;;;14.58;49.27;95472.72;5060965;28;20819;-63
2021/07/07 05:24:24;;;;;;;5.38;1.70;;;;;;;14.79;49.23;95473.59;5066211;28;20526;-63
2021/07/07 05:26:50;;;;;;;2.67;1.60;;;;;;;14.97;48.96;95476.44;5065063;28;20136;-63
2021/07/07 05:29:16;;;;;;;7.05;2.67;;;;;;;15.14;48.56;95467.94;5065860;28;20130;-63
2021/07/07 05:31:42;;;;;;;1.83;1.73;;;;;;;15.16;48.58;95465.06;5065059;28;20125;-63
2021/07/07 05:34:09;;;;;;;6.13;1.52;;;;;;;15.33;48.16;95462.72;5064953;28;20416;-63
2021/07/07 05:36:34;;;;;;;5.10;1.90;;;;;;;15.40;47.65;95468.06;5065323;28;20582;-63
2021/07/07 05:39:00;;;;;;;5.22;2.53;;;;;;;15.41;48.01;95465.16;5061928;28;20113;-64
2021/07/07 05:41:25;;;;;;;4.32;1.80;;;;;;;15.48;47.49;95465.13;5059991;28;20093;-63
2021/07/07 05:43:53;;;;;;;5.38;1.50;;;;;;;15.58;47.44;95470.06;5066267;28;20073;-64
2021/07/07 05:46:19;;;;;;;2.85;1.42;;;;;;;15.66;47.33;95475.19;5068753;28;20123;-64
2021/07/07 05:48:45;;;;;;;4.22;1.50;;;;;;;15.70;47.30;95479.09;5068784;28;20453;-63
2021/07/07 05:51:10;;;;;;;2.80;1.50;;;;;;;15.72;47.42;95473.50;5068773;28;20156;-63
2021/07/07 05:53:36;;;;;;;6.80;1.80;;;;;;;15.81;47.24;95468.72;5057975;28;20087;-63
2021/07/07 05:56:01;;;;;;;5.00;1.50;;;;;;;15.88;47.27;95474.88;5068725;28;20084;-64
2021/07/07 05:58:27;;;;;;;4.22;1.55;;;;;;;15.95;47.17;95477.50;5068045;28;20154;-63
2021/07/07 06:00:53;;;;;;;7.35;1.60;;;;;;;16.08;46.89;95480.09;5067306;28;20081;-63
2021/07/07 06:03:18;;;;;;;4.05;1.80;;;;;;;16.22;46.73;95483.53;5054213;28;20204;-64
2021/07/07 06:05:43;;;;;;;5.47;2.00;;;;;;;16.38;46.39;95492.13;5054517;28;20530;-63
2021/07/07 06:08:09;;;;;;;3.42;1.58;;;;;;;16.55;46.02;95486.22;5067397;28;20104;-63
2021/07/07 06:10:34;;;;;;;3.60;1.70;;;;;;;16.73;45.79;95483.56;5057630;28;20604;-64
2021/07/07 06:13:00;;;;;;;40.08;19.88;;;;;;;16.89;45.41;95495.63;5068822;28;20089;-64
2021/07/07 06:15:25;;;;;;;11.80;4.78;;;;;;;17.00;44.28;95488.69;5084191;28;20123;-63
2021/07/07 06:17:51;;;;;;;21.02;10.13;;;;;;;17.17;44.72;95493.53;5067168;28;20557;-63
2021/07/07 06:20:16;;;;;;;11.50;4.93;;;;;;;17.41;44.47;95490.97;5068012;28;20091;-64
2021/07/07 06:22:42;;;;;;;10.18;4.25;;;;;;;17.33;43.90;95492.09;5057085;28;20175;-64
2021/07/07 06:25:09;;;;;;;18.10;8.00;;;;;;;17.48;43.64;95496.28;5050598;28;20434;-63
2021/07/07 06:27:36;;;;;;;9.45;3.40;;;;;;;17.73;43.43;95496.19;5056910;28;20132;-63
2021/07/07 06:30:04;;;;;;;60.67;31.98;;;;;;;17.92;43.26;95504.25;5064558;28;20535;-64
2021/07/07 06:32:29;;;;;;;13.55;5.72;;;;;;;17.79;43.66;95513.28;5049479;28;20417;-64
2021/07/07 06:35:00;;;;;;;21.35;11.48;;;;;;;17.06;44.49;95518.44;5063427;28;20435;-64
2021/07/07 06:37:25;;;;;;;4.82;2.10;;;;;;;17.10;44.00;95514.25;5064791;28;20101;-63
2021/07/07 06:39:51;;;;;;;6.78;2.05;;;;;;;17.96;42.33;95521.59;5056829;28;20093;-64
2021/07/07 06:42:16;;;;;;;5.43;2.38;;;;;;;15.75;46.69;95519.50;5056697;28;20577;-64
2021/07/07 06:44:41;;;;;;;4.15;2.20;;;;;;;16.96;44.54;95522.44;5064968;28;20080;-64
2021/07/07 06:47:07;;;;;;;22.15;12.13;;;;;;;17.18;44.06;95521.22;5064381;28;20116;-63
2021/07/07 06:49:32;;;;;;;6.40;2.60;;;;;;;17.98;43.06;95521.38;5062046;28;20088;-64
2021/07/07 06:51:58;;;;;;;9.38;3.42;;;;;;;18.26;42.33;95526.13;5058057;28;20554;-64
2021/07/07 06:54:24;;;;;;;11.77;5.85;;;;;;;18.29;41.90;95527.56;5063698;28;20120;-64
2021/07/07 06:56:49;;;;;;;10.00;3.72;;;;;;;18.35;40.71;95525.84;5032958;28;20078;-63
2021/07/07 06:59:14;;;;;;;13.35;7.10;;;;;;;18.50;40.66;95533.47;5058589;28;20104;-64
2021/07/07 07:01:40;;;;;;;10.80;4.63;;;;;;;18.03;41.71;95530.41;5055449;28;20073;-64
2021/07/07 07:04:05;;;;;;;11.15;3.75;;;;;;;18.42;41.80;95524.66;5061859;28;20076;-64
2021/07/07 07:06:31;;;;;;;6.80;2.40;;;;;;;18.64;39.66;95529.56;5057459;28;20458;-63
2021/07/07 07:08:56;;;;;;;8.05;3.75;;;;;;;17.17;42.92;95533.88;5062076;28;20138;-64
2021/07/07 07:11:22;;;;;;;9.82;3.50;;;;;;;17.74;41.99;95534.69;5052808;28;20519;-64
2021/07/07 07:13:47;;;;;;;11.18;6.25;;;;;;;18.16;41.44;95539.34;5062899;28;20088;-64
2021/07/07 07:16:13;;;;;;;7.38;4.63;;;;;;;18.36;40.80;95535.56;5060035;28;20401;-65
2021/07/07 07:18:38;;;;;;;13.90;6.78;;;;;;;18.41;40.94;95538.38;5053877;28;20124;-64
2021/07/07 07:21:04;;;;;;;9.88;3.20;;;;;;;18.26;40.99;95545.00;5058155;28;20093;-65
2021/07/07 07:23:29;;;;;;;9.05;3.65;;;;;;;18.58;40.35;95543.94;5054859;28;20411;-64
2021/07/07 07:25:55;;;;;;;5.75;2.92;;;;;;;18.73;39.80;95554.28;5058020;28;20548;-64
2021/07/07 07:28:20;;;;;;;7.00;3.28;;;;;;;18.59;40.14;95544.78;5062460;28;20084;-64
2021/07/07 07:30:46;;;;;;;5.03;1.90;;;;;;;19.04;39.49;95549.63;5047444;28;20200;-64
2021/07/07 07:33:12;;;;;;;7.82;2.55;;;;;;;18.92;39.30;95554.19;5051479;28;20188;-64
2021/07/07 07:35:37;;;;;;;8.65;3.97;;;;;;;19.23;40.17;95552.22;5044469;28;20190;-65
2021/07/07 07:38:04;;;;;;;8.38;2.42;;;;;;;19.12;38.70;95550.34;5044909;28;20120;-64
2021/07/07 07:40:38;;;;;;;12.20;6.65;;;;;;;19.35;38.92;95551.41;5044431;28;20101;-64
2021/07/07 07:43:04;;;;;;;8.32;2.45;;;;;;;19.38;37.61;95546.34;5048752;28;20101;-64
2021/07/07 07:45:30;;;;;;;9.57;3.80;;;;;;;19.42;38.14;95544.03;5043208;28;20571;-64
2021/07/07 07:47:55;;;;;;;12.13;4.80;;;;;;;19.07;39.14;95548.34;5052052;28;20111;-64
2021/07/07 07:50:21;;;;;;;8.75;3.22;;;;;;;19.61;38.00;95552.78;5060538;28;20465;-65
2021/07/07 07:52:46;;;;;;;6.38;3.08;;;;;;;20.05;37.15;95549.63;5059797;28;20111;-64
2021/07/07 07:55:12;;;;;;;12.82;6.60;;;;;;;18.77;39.08;95551.97;5046347;28;20121;-64
2021/07/07 07:57:37;;;;;;;6.07;2.10;;;;;;;18.47;39.48;95550.94;5074379;28;20073;-64
2021/07/07 08:00:07;;;;;;;19.15;9.35;;;;;;;19.12;39.71;95553.88;5059561;28;20085;-65
2021/07/07 08:02:33;;;;;;;10.07;5.35;;;;;;;20.10;37.54;95544.31;5045888;28;20105;-64
2021/07/07 08:04:58;;;;;;;7.10;1.90;;;;;;;20.84;36.41;95544.53;5062301;28;20088;-64
2021/07/07 08:07:27;;;;;;;7.57;4.03;;;;;;;21.03;35.67;95551.59;5061714;28;20109;-64
2021/07/07 08:09:52;;;;;;;8.82;4.70;;;;;;;21.08;34.99;95549.78;5057401;28;20183;-65
2021/07/07 08:12:18;;;;;;;18.33;8.40;;;;;;;20.31;36.19;95552.00;5062835;28;20093;-64
2021/07/07 08:14:43;;;;;;;10.93;4.10;;;;;;;21.18;35.50;95551.81;5063077;28;20143;-65
2021/07/07 08:17:09;;;;;;;9.57;4.15;;;;;;;21.56;35.48;95554.81;5063740;28;20801;-65
2021/07/07 08:19:34;;;;;;;6.75;2.88;;;;;;;19.83;37.36;95546.75;5061382;28;20135;-65
2021/07/07 08:22:00;;;;;;;7.22;2.13;;;;;;;20.94;36.46;95548.50;5062682;28;20124;-64
2021/07/07 08:24:25;;;;;;;6.75;1.80;;;;;;;21.48;33.47;95550.66;5059935;28;20089;-65
2021/07/07 08:26:50;;;;;;;15.35;4.78;;;;;;;21.35;34.51;95556.44;5064947;28;20161;-65
2021/07/07 08:29:16;;;;;;;11.27;5.80;;;;;;;21.05;35.35;95552.16;5049292;28;22261;-65
2021/07/07 08:31:41;;;;;;;13.80;4.65;;;;;;;21.02;34.98;95552.66;5057643;28;20101;-65
2021/07/07 08:34:07;;;;;;;4.63;1.88;;;;;;;21.98;34.33;95553.47;5065500;28;20120;-65
2021/07/07 08:36:33;;;;;;;7.53;2.30;;;;;;;21.97;32.63;95551.84;5065596;28;20861;-65
2021/07/07 08:38:59;;;;;;;5.88;2.00;;;;;;;21.81;33.76;95553.50;5062253;28;20105;-65
2021/07/07 08:41:24;;;;;;;10.13;5.30;;;;;;;20.87;36.22;95552.16;5046295;28;20097;-66
2021/07/07 08:43:50;;;;;;;8.35;2.33;;;;;;;21.92;34.12;95559.09;5064651;28;20397;-65
2021/07/07 08:46:15;;;;;;;12.32;3.50;;;;;;;22.19;33.31;95564.53;5065154;28;20105;-65
2021/07/07 08:48:41;;;;;;;11.50;2.90;;;;;;;21.24;34.73;95560.81;5060388;28;20085;-65
2021/07/07 08:51:07;;;;;;;6.57;2.50;;;;;;;20.53;36.08;95568.34;5050797;28;20132;-65
2021/07/07 08:53:33;;;;;;;8.48;2.60;;;;;;;19.73;38.04;95563.56;5050762;28;20163;-64
2021/07/07 08:55:58;;;;;;;7.43;2.42;;;;;;;20.89;35.96;95567.31;5078723;28;20139;-65
2021/07/07 08:58:24;;;;;;;6.43;2.22;;;;;;;21.31;33.64;95566.13;5053569;28;20104;-65
2021/07/07 09:00:50;;;;;;;11.05;3.80;;;;;;;17.48;39.94;95575.16;5063137;28;20088;-65
2021/07/07 09:03:17;;;;;;;7.57;2.00;;;;;;;20.12;36.96;95570.31;5047355;28;20660;-65
2021/07/07 09:06:03;;;;;;;7.13;2.00;;;;;;;20.87;35.36;95581.09;5065321;28;20087;-65
2021/07/07 09:08:36;;;;;;;7.80;2.10;;;;;;;21.27;35.07;95581.19;5064162;28;20077;-65
2021/07/07 09:11:22;;;;;;;12.95;3.35;;;;;;;20.98;34.98;95574.00;5063731;28;20170;-65
2021/07/07 09:14:07;;;;;;;8.80;2.88;;;;;;;19.64;37.08;95582.00;5046350;28;20112;-65
2021/07/07 09:16:44;;;;;;;10.38;3.28;;;;;;;19.59;37.12;95584.59;5045343;28;20522;-65
2021/07/07 09:19:16;;;;;;;;;;;;;;;19.63;37.24;95582.25;5055325;28;20166;-64
2021/07/07 09:21:47;;;;;;;7.97;2.78;;;;;;;21.01;36.28;95587.03;5065856;28;19964;-65
2021/07/07 09:24:21;;;;;;;9.98;5.05;;;;;;;21.47;34.73;95594.22;5059767;28;20183;-65
2021/07/07 09:26:57;;;;;;;9.70;4.00;;;;;;;22.01;32.78;95595.50;5067355;28;20135;-64
2021/07/07 09:29:52;;;;;;;6.28;2.13;;;;;;;21.92;32.10;95591.59;5054703;28;20101;-65
2021/07/07 09:32:23;;;;;;;7.70;2.13;;;;;;;21.88;31.64;95602.06;5057049;28;20407;-65
2021/07/07 09:34:51;;;;;;;7.38;3.05;;;;;;;21.64;32.31;95605.84;5035121;28;20247;-65
2021/07/07 09:37:28;;;;;;;10.70;2.13;;;;;;;22.33;32.02;95593.97;5054096;28;20449;-65
2021/07/07 09:39:54;;;;;;;7.55;3.10;;;;;;;23.05;31.65;95593.84;5068553;28;20113;-65
2021/07/07 09:42:27;;;;;;;7.03;1.87;;;;;;;23.97;31.01;95591.19;5061237;28;20132;-65
2021/07/07 09:44:53;;;;;;;6.28;2.40;;;;;;;24.37;29.35;95594.34;5068833;28;20327;-65
2021/07/07 09:47:20;;;;;;;4.57;1.97;;;;;;;22.41;28.46;95599.72;5079451;28;20110;-68
2021/07/07 09:49:48;;;;;;;12.57;3.85;;;;;;;22.10;30.38;95604.81;5061607;28;20115;-65
2021/07/07 09:52:24;;;;;;;4.65;2.38;;;;;;;22.22;30.49;95601.16;5075847;28;20546;-65
2021/07/07 09:54:49;;;;;;;8.60;3.17;;;;;;;21.03;32.60;95609.25;5049710;28;20140;-64
2021/07/07 09:57:15;;;;;;;7.97;2.10;;;;;;;22.32;30.63;95612.13;5063985;28;20914;-64
2021/07/07 09:59:41;;;;;;;9.23;5.00;;;;;;;21.64;32.89;95611.25;5051902;28;20109;-65
2021/07/07 10:02:06;;;;;;;8.80;3.20;;;;;;;22.50;32.02;95607.44;5041636;28;20553;-64
2021/07/07 10:04:33;;;;;;;10.23;2.53;;;;;;;23.79;30.46;95621.28;5078254;28;20176;-65
2021/07/07 10:06:59;;;;;;;9.43;4.13;;;;;;;22.50;31.04;95627.22;5066963;28;20116;-65
2021/07/07 10:09:25;;;;;;;5.80;1.90;;;;;;;23.24;29.23;95620.59;5061049;28;20096;-64
2021/07/07 10:11:51;;;;;;;9.70;4.63;;;;;;;22.48;30.70;95618.53;5063350;28;20164;-65
2021/07/07 10:14:17;;;;;;;13.40;6.03;;;;;;;22.32;31.32;95620.25;5062545;28;20112;-65
2021/07/07 10:16:42;;;;;;;7.38;3.28;;;;;;;21.98;31.64;95617.69;5068167;28;20163;-65
2021/07/07 10:19:07;;;;;;;9.43;4.18;;;;;;;22.60;31.47;95621.13;5060474;28;20113;-65
2021/07/07 10:21:33;;;;;;;13.23;9.83;;;;;;;23.07;31.14;95631.59;5068293;28;20073;-65
2021/07/07 10:23:58;;;;;;;6.70;2.70;;;;;;;23.30;29.79;95625.00;5055663;28;20135;-65
2021/07/07 10:26:24;;;;;;;9.50;3.37;;;;;;;22.88;30.92;95624.63;5062865;28;20635;-65
2021/07/07 10:28:49;;;;;;;6.67;2.33;;;;;;;23.43;30.12;95629.19;5061643;28;20073;-65
2021/07/07 10:31:15;;;;;;;6.77;2.10;;;;;;;23.28;29.53;95632.59;5053464;28;20158;-65
2021/07/07 10:33:40;;;;;;;8.77;2.60;;;;;;;19.82;34.75;95634.25;5063940;28;20097;-65
2021/07/07 10:36:21;;;;;;;7.70;2.77;;;;;;;20.54;32.90;95626.78;5051440;28;20093;-65
2021/07/07 10:39:04;;;;;;;6.63;2.25;;;;;;;21.00;32.56;95618.66;5053433;28;20120;-65
2021/07/07 10:41:45;;;;;;;13.60;3.95;;;;;;;21.82;32.63;95625.56;5064035;28;20096;-65
2021/07/07 10:44:31;;;;;;;5.80;2.20;;;;;;;22.58;32.00;95636.00;5056758;28;20081;-65
2021/07/07 10:47:05;;;;;;;9.10;2.60;;;;;;;22.72;30.21;95637.25;5061849;28;20178;-65
2021/07/07 10:49:52;;;;;;;7.47;2.78;;;;;;;22.60;31.45;95644.72;5050341;28;20514;-65
2021/07/07 10:52:40;;;;;;;6.20;2.20;;;;;;;22.17;31.69;95630.91;5058198;28;20426;-65
2021/07/07 10:55:07;;;;;;;7.82;2.20;;;;;;;19.45;36.44;95646.94;5050457;28;20108;-65
2021/07/07 10:57:36;;;;;;;5.15;2.10;;;;;;;21.39;32.79;95644.22;5061934;28;20081;-64
2021/07/07 11:00:04;;;;;;;6.30;2.00;;;;;;;21.86;32.54;95642.97;5058667;28;20160;-64
2021/07/07 11:02:30;;;;;;;6.82;2.17;;;;;;;22.24;31.95;95642.41;5063639;28;20538;-64
2021/07/07 11:04:58;;;;;;;3.75;2.00;;;;;;;22.84;31.15;95642.50;5063477;28;20085;-64
2021/07/07 11:07:33;;;;;;;6.28;1.95;;;;;;;23.27;30.28;95639.09;5063066;28;20604;-65
2021/07/07 11:10:17;;;;;;;6.55;3.05;;;;;;;22.52;30.17;95633.22;5053447;28;20117;-64
2021/07/07 11:12:42;;;;;;;4.55;1.88;;;;;;;23.12;31.17;95628.91;5046301;28;20089;-65
2021/07/07 11:15:09;;;;;;;4.57;1.80;;;;;;;23.66;30.32;95640.75;5059240;28;20117;-65
2021/07/07 11:17:41;;;;;;;6.07;1.90;;;;;;;24.41;29.54;95630.81;5059588;28;20089;-65
2021/07/07 11:20:10;;;;;;;4.05;2.08;;;;;;;24.87;28.35;95630.06;5045231;28;20077;-65
2021/07/07 11:22:39;;;;;;;8.02;2.30;;;;;;;23.88;27.63;95634.34;5043925;28;20222;-65
2021/07/07 11:25:08;;;;;;;4.63;1.88;;;;;;;22.31;29.83;95632.19;5058237;28;20103;-65
2021/07/07 11:27:35;;;;;;;5.85;2.05;;;;;;;21.56;31.83;95622.53;5053566;28;20097;-65
2021/07/07 11:30:01;;;;;;;5.90;2.25;;;;;;;22.80;29.68;95622.38;5055794;28;20117;-64